createdAt,value
2019-01-21T00:03:15.326Z,1015.1
2019-01-21T00:13:29.968Z,1015.1
2019-01-21T00:23:43.920Z,1015.2
2019-01-21T00:33:59.228Z,1015.2
2019-01-21T00:44:13.611Z,1015.3
2019-01-21T00:54:27.642Z,1015.1
2019-01-21T01:04:42.469Z,1015.2
2019-01-21T01:14:57.132Z,1015.3
2019-01-21T01:25:11.663Z,1015.3
2019-01-21T01:35:26.826Z,1015.3
2019-01-21T01:45:41.422Z,1015.5
2019-01-21T01:55:56.781Z,1015.6
2019-01-21T02:06:11.960Z,1015.6
2019-01-21T02:16:27.199Z,1015.6
2019-01-21T02:26:42.308Z,1015.5
2019-01-21T02:36:56.525Z,1015.4
2019-01-21T02:47:12.013Z,1015.4
2019-01-21T02:57:26.387Z,1015.4
2019-01-21T03:07:41.684Z,1015.3
2019-01-21T03:17:55.436Z,1015.3
2019-01-21T03:28:09.221Z,1015.3
2019-01-21T03:38:24.551Z,1015.3
2019-01-21T03:48:39.484Z,1015.3
2019-01-21T03:58:54.570Z,1015.2
2019-01-21T04:09:09.126Z,1015.3
2019-01-21T04:19:23.749Z,1015.3
2019-01-21T04:29:37.332Z,1015.2
2019-01-21T04:39:52.852Z,1015
2019-01-21T04:50:07.089Z,1015
2019-01-21T05:00:22.026Z,1014.9
2019-01-21T05:10:36.136Z,1015
2019-01-21T05:20:49.892Z,1015
2019-01-21T05:31:03.781Z,1015
2019-01-21T05:41:18.353Z,1015.1
2019-01-21T05:51:32.607Z,1015
2019-01-21T06:01:47.817Z,1015.1
2019-01-21T06:12:01.622Z,1015.2
2019-01-21T06:22:15.480Z,1015.3
2019-01-21T06:32:29.649Z,1015.3
2019-01-21T06:42:44.408Z,1015.3
2019-01-21T06:52:59.477Z,1015.4
2019-01-21T07:03:13.718Z,1015.5
2019-01-21T07:13:29.092Z,1015.5
2019-01-21T07:23:44.470Z,1015.7
2019-01-21T07:33:59.740Z,1015.8
2019-01-21T07:44:14.283Z,1015.6
2019-01-21T07:54:28.164Z,1015.7
2019-01-21T08:04:42.355Z,1015.9
2019-01-21T08:14:57.695Z,1016
2019-01-21T08:25:12.089Z,1016.1
2019-01-21T08:35:26.384Z,1015.9
2019-01-21T08:45:41.178Z,1015.9
2019-01-21T08:55:55.118Z,1016.1
2019-01-21T09:06:08.886Z,1016.2
2019-01-21T09:16:22.792Z,1016.2
2019-01-21T09:26:36.846Z,1016
2019-01-21T09:36:51.795Z,1016
2019-01-21T09:47:06.878Z,1016.2
2019-01-21T09:57:22.330Z,1016.1
2019-01-21T10:07:36.281Z,1015.9
2019-01-21T10:17:50.444Z,1015.9
2019-01-21T10:28:05.938Z,1016
2019-01-21T10:38:20.607Z,1015.8
2019-01-21T10:48:35.331Z,1015.5
2019-01-21T10:58:49.131Z,1015.5
2019-01-21T11:09:03.790Z,1015.5
2019-01-21T11:19:17.609Z,1015.4
2019-01-21T11:29:31.539Z,1015.3
2019-01-21T11:39:46.173Z,1015.1
2019-01-21T11:50:01.607Z,1015
2019-01-21T12:00:16.204Z,1014.9
2019-01-21T12:10:30.882Z,1014.9
2019-01-21T12:20:45.745Z,1014.7
2019-01-21T12:31:01.550Z,1014.6
2019-01-21T12:41:15.593Z,1014.5
2019-01-21T12:51:30.672Z,1014.5
2019-01-21T13:01:44.877Z,1014.4
2019-01-21T13:11:59.416Z,1014.4
2019-01-21T13:22:14.157Z,1014.1
